Peterson, Utah
Current Conditions -  °F | °C
As of 12:58 PM on Wednesday 28 Jan 2015 (Local Time) from KHIF Reporting Station
Broken Clouds Broken Clouds  
Wind Chill: 44°   Ceiling: 3000
Heat Index: 44°   Visibility: 10mi
Dew Point: 32°   Wind: 2mph
Humidity: 63%   Direction: NA
Pressure: 30.3"   Gusts: NA
Location:  41.0884°N, 111.576°W
Report Text: KHIF 281958Z VRB02KT 10SM FEW026 BKN030 07/00 A3030 RMK AO2A SLP250 T00660001
Loading
Personal Weather Stations






























Interactive Weather Map New forecast layout! Learn more

10-Day Weather Forecast

Advertisements
Track Severe Weather on mobile